Time;durP1;ratioP1;P1;durP2;ratioP2;P2;SDS_P1;SDS_P2;PMS_P1;PMS_P2;Temp;Humidity;BMP_temperature;BMP_pressure;BME280_temperature;BME280_humidity;BME280_pressure;Samples;Min_cycle;Max_cycle;Signal;HPM_P1;HPM_P2
2022/04/27 00:02:09;;;;;;;11.98;6.88;;;8.10;99.90;;;;;;5025700;28;20079;-80
2022/04/27 00:04:35;;;;;;;11.27;7.40;;;8.10;99.90;;;;;;5029251;28;20068;-80
2022/04/27 00:07:04;;;;;;;13.15;7.93;;;8.20;99.90;;;;;;5020977;28;20049;-80
2022/04/27 00:09:33;;;;;;;13.70;7.55;;;8.20;99.90;;;;;;5022142;28;20132;-80
2022/04/27 00:12:01;;;;;;;12.00;7.10;;;8.20;99.90;;;;;;5024626;28;20100;-80
2022/04/27 00:14:28;;;;;;;11.68;6.88;;;8.20;99.90;;;;;;5024684;28;20099;-80
2022/04/27 00:16:54;;;;;;;10.00;6.45;;;8.20;99.90;;;;;;5027938;28;20041;-80
2022/04/27 00:19:19;;;;;;;10.45;7.00;;;8.20;99.90;;;;;;5028410;28;20029;-80
2022/04/27 00:21:45;;;;;;;16.17;7.50;;;8.20;99.90;;;;;;5030143;28;20403;-81
2022/04/27 00:24:10;;;;;;;12.48;6.53;;;8.20;99.90;;;;;;5050385;28;20407;-80
2022/04/27 00:26:36;;;;;;;12.88;7.45;;;8.20;99.90;;;;;;5049525;28;20049;-80
2022/04/27 00:29:01;;;;;;;12.40;7.55;;;8.20;99.90;;;;;;5034419;28;20049;-80
2022/04/27 00:31:28;;;;;;;11.80;7.10;;;8.20;99.90;;;;;;5033645;28;20116;-80
2022/04/27 00:33:54;;;;;;;13.20;7.03;;;8.20;99.90;;;;;;5027861;28;20042;-80
2022/04/27 00:36:19;;;;;;;13.25;7.30;;;8.20;99.90;;;;;;5030484;28;20202;-81
2022/04/27 00:38:45;;;;;;;12.02;6.50;;;8.10;99.90;;;;;;5032920;28;20558;-80
2022/04/27 00:41:10;;;;;;;13.05;7.55;;;8.10;99.90;;;;;;5019333;28;20173;-80
2022/04/27 00:43:41;;;;;;;9.23;6.57;;;8.10;99.90;;;;;;5020869;28;20041;-80
2022/04/27 00:46:09;;;;;;;12.65;6.32;;;8.00;99.90;;;;;;5031044;28;20038;-79
2022/04/27 00:48:36;;;;;;;12.20;7.57;;;7.90;99.90;;;;;;5033047;28;20044;-79
2022/04/27 00:51:03;;;;;;;11.73;6.93;;;8.00;99.90;;;;;;5022684;28;20041;-80
2022/04/27 00:53:28;;;;;;;10.88;6.80;;;8.00;99.90;;;;;;5030989;28;20399;-78
2022/04/27 00:55:56;;;;;;;11.40;6.97;;;8.00;99.90;;;;;;5022895;28;20040;-79
2022/04/27 00:58:24;;;;;;;11.43;6.93;;;8.00;99.90;;;;;;5026745;28;20041;-79
2022/04/27 01:00:50;;;;;;;14.15;7.32;;;8.00;99.90;;;;;;5023050;28;20038;-79
2022/04/27 01:03:16;;;;;;;12.05;6.88;;;8.00;99.90;;;;;;5032602;28;20033;-80
2022/04/27 01:05:42;;;;;;;12.85;7.28;;;8.10;99.90;;;;;;5026961;28;20412;-81
2022/04/27 01:08:08;;;;;;;11.13;6.70;;;8.10;99.90;;;;;;5032849;28;20120;-79
2022/04/27 01:10:34;;;;;;;15.95;7.25;;;8.20;99.90;;;;;;5015500;28;20489;-79
2022/04/27 01:13:00;;;;;;;12.27;7.20;;;8.20;99.90;;;;;;5013217;28;20137;-79
2022/04/27 01:15:36;;;;;;;10.52;7.03;;;8.30;99.90;;;;;;5013005;28;20042;-79
2022/04/27 01:18:03;;;;;;;12.40;6.93;;;8.30;99.90;;;;;;5025682;28;20041;-79
2022/04/27 01:20:36;;;;;;;9.43;6.30;;;8.30;99.90;;;;;;5023381;28;20110;-79
2022/04/27 01:23:02;;;;;;;8.43;6.35;;;8.30;99.90;;;;;;5032977;28;20373;-79
2022/04/27 01:25:28;;;;;;;10.13;6.25;;;8.30;99.90;;;;;;5032469;28;20037;-78
2022/04/27 01:27:54;;;;;;;9.45;5.97;;;8.20;99.90;;;;;;5031781;28;20153;-79
2022/04/27 01:30:20;;;;;;;11.35;6.45;;;8.20;99.90;;;;;;5016209;28;20050;-79
2022/04/27 01:32:46;;;;;;;9.73;6.00;;;8.20;99.90;;;;;;5012257;28;20049;-79
2022/04/27 01:35:11;;;;;;;11.73;5.43;;;8.20;99.90;;;;;;5021187;28;20041;-79
2022/04/27 01:40:21;;;;;;;8.13;5.20;;;8.10;99.90;;;;;;5028121;28;20101;-79
2022/04/27 01:42:48;;;;;;;10.45;5.35;;;8.10;99.90;;;;;;5032342;28;20034;-78
2022/04/27 01:45:13;;;;;;;8.45;6.13;;;8.10;99.90;;;;;;5031243;28;20509;-79
2022/04/27 01:47:39;;;;;;;8.70;5.57;;;8.10;99.90;;;;;;5029481;28;20045;-79
2022/04/27 01:50:05;;;;;;;13.45;5.28;;;8.10;99.90;;;;;;5023808;28;20033;-80
2022/04/27 01:55:15;;;;;;;8.48;5.40;;;8.10;99.90;;;;;;5023113;28;20075;-79
2022/04/27 01:57:40;;;;;;;10.38;5.13;;;8.10;99.90;;;;;;5031980;28;20037;-80
2022/04/27 02:00:06;;;;;;;6.68;4.93;;;8.20;99.90;;;;;;5032431;28;20040;-80
2022/04/27 02:02:33;;;;;;;8.40;4.80;;;8.20;99.90;;;;;;5031971;28;20064;-79
2022/04/27 02:04:59;;;;;;;12.10;5.03;;;8.20;99.90;;;;;;5024486;28;20042;-79
2022/04/27 02:07:25;;;;;;;9.48;5.30;;;8.20;99.90;;;;;;5029154;28;20041;-79
2022/04/27 02:09:51;;;;;;;9.00;5.03;;;8.30;99.90;;;;;;5029929;28;20041;-79
2022/04/27 02:12:16;;;;;;;9.40;4.97;;;8.30;99.90;;;;;;5031463;28;20037;-79
2022/04/27 02:14:42;;;;;;;8.30;5.10;;;8.30;99.90;;;;;;5031211;28;20038;-79
2022/04/27 02:17:08;;;;;;;8.85;4.97;;;8.30;99.90;;;;;;5032061;28;20045;-80
2022/04/27 02:19:33;;;;;;;10.35;5.22;;;8.30;99.90;;;;;;5030025;28;20033;-78
2022/04/27 02:21:59;;;;;;;6.95;4.47;;;8.30;99.90;;;;;;5030676;28;20034;-79
2022/04/27 02:24:25;;;;;;;8.18;4.78;;;8.30;99.90;;;;;;5014163;28;20515;-79
2022/04/27 02:26:52;;;;;;;7.60;4.47;;;8.20;99.90;;;;;;5011798;28;20108;-78
2022/04/27 02:29:18;;;;;;;8.63;4.55;;;8.30;99.90;;;;;;5018435;28;20037;-79
2022/04/27 02:31:44;;;;;;;7.32;4.22;;;8.30;99.90;;;;;;5022291;28;20048;-79
2022/04/27 02:34:10;;;;;;;11.27;5.03;;;8.30;99.90;;;;;;5031515;28;20041;-78
2022/04/27 02:36:36;;;;;;;9.52;4.78;;;8.30;99.90;;;;;;5030878;28;20514;-79
2022/04/27 02:39:01;;;;;;;6.63;4.72;;;8.30;99.90;;;;;;5031508;28;20037;-79
2022/04/27 02:41:27;;;;;;;7.45;4.50;;;8.30;99.90;;;;;;5013807;28;20088;-79
2022/04/27 02:43:54;;;;;;;11.90;5.28;;;8.30;99.90;;;;;;5004997;28;20060;-79
2022/04/27 02:46:20;;;;;;;10.73;4.47;;;8.30;99.90;;;;;;5030101;28;20045;-79
2022/04/27 02:54:14;;;;;;;8.30;4.03;;;8.20;99.90;;;;;;5025003;28;21637;-78
2022/04/27 02:56:40;;;;;;;7.40;3.97;;;8.20;99.90;;;;;;5027527;28;20041;-79
2022/04/27 02:59:05;;;;;;;7.78;4.10;;;8.20;99.90;;;;;;5011518;28;20038;-79
2022/04/27 03:01:31;;;;;;;9.70;4.05;;;8.10;99.90;;;;;;5011162;28;20037;-79
2022/04/27 03:03:56;;;;;;;8.27;4.82;;;8.10;99.90;;;;;;5010696;28;20042;-79
2022/04/27 03:06:22;;;;;;;7.90;4.45;;;8.10;99.90;;;;;;5046206;28;20041;-79
2022/04/27 03:08:47;;;;;;;8.98;4.70;;;8.10;99.90;;;;;;5027643;28;20049;-79
2022/04/27 03:11:12;;;;;;;8.23;4.05;;;8.10;99.90;;;;;;5021623;28;20053;-79
2022/04/27 03:13:38;;;;;;;8.88;4.15;;;8.00;99.90;;;;;;5029396;28;20049;-80
2022/04/27 03:16:04;;;;;;;8.52;4.30;;;8.00;99.90;;;;;;5021953;28;20133;-79
2022/04/27 03:18:30;;;;;;;9.35;4.00;;;8.00;99.90;;;;;;5027942;28;20411;-79
2022/04/27 03:20:55;;;;;;;7.28;4.00;;;8.00;99.90;;;;;;5022488;28;20392;-79
2022/04/27 03:23:21;;;;;;;7.93;3.85;;;8.00;99.90;;;;;;5028782;28;20037;-79
2022/04/27 03:25:46;;;;;;;6.30;4.13;;;8.00;99.90;;;;;;5020932;28;20153;-80
2022/04/27 03:28:12;;;;;;;7.60;4.28;;;8.00;99.90;;;;;;5029901;28;20030;-81
2022/04/27 03:30:38;;;;;;;6.45;4.15;;;8.00;99.90;;;;;;5012734;28;20439;-81
2022/04/27 03:33:04;;;;;;;10.60;4.70;;;8.00;99.90;;;;;;5022702;28;20090;-80
2022/04/27 03:35:30;;;;;;;7.13;4.10;;;8.00;99.90;;;;;;5029869;28;20068;-80
2022/04/27 03:37:58;;;;;;;11.80;4.60;;;8.00;99.90;;;;;;5017851;28;20059;-80
2022/04/27 03:40:26;;;;;;;6.28;4.18;;;8.10;99.90;;;;;;5020431;28;20048;-80
2022/04/27 03:42:53;;;;;;;9.88;4.82;;;8.00;99.90;;;;;;5030464;28;20033;-80
2022/04/27 03:45:19;;;;;;;10.13;4.63;;;8.10;99.90;;;;;;5017329;28;20044;-80
2022/04/27 03:47:48;;;;;;;9.90;4.47;;;8.10;99.90;;;;;;5023320;28;20081;-80
2022/04/27 03:50:15;;;;;;;9.45;5.03;;;8.10;99.90;;;;;;5026551;28;20029;-80
2022/04/27 03:52:42;;;;;;;10.63;4.60;;;8.00;99.90;;;;;;5013312;28;20343;-80
2022/04/27 03:55:08;;;;;;;8.88;4.30;;;8.00;99.90;;;;;;5029663;28;20124;-79
2022/04/27 03:57:33;;;;;;;7.30;4.22;;;8.00;99.90;;;;;;5030276;28;20068;-80
2022/04/27 03:59:59;;;;;;;10.43;4.75;;;8.00;99.90;;;;;;5021296;28;20521;-80
2022/04/27 04:02:24;;;;;;;9.05;3.97;;;8.00;99.90;;;;;;5030302;28;20095;-80
2022/04/27 04:04:50;;;;;;;8.50;4.25;;;8.00;99.90;;;;;;5029339;28;20140;-80
2022/04/27 04:07:15;;;;;;;7.03;4.18;;;8.00;99.90;;;;;;5014987;28;20120;-79
2022/04/27 04:09:41;;;;;;;9.50;4.70;;;8.00;99.90;;;;;;5012062;28;20142;-80
2022/04/27 04:12:07;;;;;;;10.25;4.63;;;7.90;99.90;;;;;;5030347;28;20068;-80
2022/04/27 04:14:33;;;;;;;10.38;4.60;;;8.00;99.90;;;;;;5011917;28;20046;-80
2022/04/27 04:16:59;;;;;;;9.85;4.38;;;8.00;99.90;;;;;;5009661;28;20040;-81
2022/04/27 04:19:25;;;;;;;8.85;5.20;;;8.00;99.90;;;;;;5028694;28;20064;-80
2022/04/27 04:21:50;;;;;;;10.07;4.97;;;8.00;99.90;;;;;;5023224;28;20037;-80
2022/04/27 04:24:17;;;;;;;7.72;4.82;;;8.00;99.90;;;;;;5029972;28;20048;-80
2022/04/27 04:29:26;;;;;;;;;;;8.00;99.90;;;;;;5028666;28;20042;-82
2022/04/27 04:31:52;;;;;;;9.38;4.55;;;7.90;99.90;;;;;;5022769;28;19921;-81
2022/04/27 04:34:17;;;;;;;8.55;4.80;;;7.90;99.90;;;;;;5023781;28;20490;-80
2022/04/27 04:36:43;;;;;;;9.88;5.40;;;7.90;99.90;;;;;;5029946;28;20403;-80
2022/04/27 04:39:09;;;;;;;10.27;4.75;;;7.90;99.90;;;;;;5030801;28;20159;-82
2022/04/27 04:41:34;;;;;;;9.18;5.28;;;7.90;99.90;;;;;;5031374;28;20033;-81
2022/04/27 04:44:00;;;;;;;7.63;5.50;;;7.90;99.90;;;;;;5030196;28;20037;-81
2022/04/27 04:46:26;;;;;;;7.53;4.95;;;8.00;99.90;;;;;;5014512;28;20041;-82
2022/04/27 04:48:51;;;;;;;8.13;5.13;;;8.00;99.90;;;;;;5011797;28;20042;-81
2022/04/27 04:51:17;;;;;;;9.63;5.13;;;8.00;99.90;;;;;;5025216;28;20120;-81
2022/04/27 04:53:43;;;;;;;9.90;5.18;;;8.00;99.90;;;;;;5022141;28;20037;-81
2022/04/27 04:56:08;;;;;;;10.43;5.50;;;8.00;99.90;;;;;;5030708;28;20124;-81
2022/04/27 04:58:34;;;;;;;11.32;5.30;;;8.00;99.90;;;;;;5029693;28;20034;-81
2022/04/27 05:01:01;;;;;;;7.75;5.40;;;8.00;99.90;;;;;;5027216;28;20037;-82
2022/04/27 05:03:27;;;;;;;9.00;5.20;;;8.00;99.90;;;;;;5027833;28;20408;-81
2022/04/27 05:05:52;;;;;;;6.10;4.43;;;8.00;99.90;;;;;;5027853;28;20038;-81
2022/04/27 05:08:18;;;;;;;9.13;4.50;;;8.10;99.90;;;;;;5029335;28;20042;-81
2022/04/27 05:10:44;;;;;;;10.57;5.25;;;8.10;99.90;;;;;;5014136;28;20044;-83
2022/04/27 05:13:10;;;;;;;9.73;5.00;;;8.10;99.90;;;;;;5030348;28;20128;-81
2022/04/27 05:15:35;;;;;;;8.73;4.68;;;8.20;99.90;;;;;;5029456;28;20069;-81
2022/04/27 05:18:01;;;;;;;8.60;4.97;;;8.10;99.90;;;;;;5030877;28;20120;-82
2022/04/27 05:20:27;;;;;;;11.25;5.22;;;8.10;99.90;;;;;;5029414;28;20041;-82
2022/04/27 05:22:53;;;;;;;9.35;4.72;;;8.20;99.90;;;;;;5031028;28;20029;-82
2022/04/27 05:25:18;;;;;;;9.65;5.18;;;8.20;99.90;;;;;;5012604;28;20044;-82
2022/04/27 05:27:44;;;;;;;8.13;4.97;;;8.20;99.90;;;;;;5028025;28;20162;-81
2022/04/27 05:32:55;;;;;;;7.70;4.07;;;8.10;99.90;;;;;;5030421;28;20134;-82
2022/04/27 05:35:21;;;;;;;7.45;4.28;;;8.10;99.90;;;;;;5032842;28;20502;-82
2022/04/27 05:37:46;;;;;;;9.10;4.40;;;8.10;99.90;;;;;;5031143;28;20087;-85
2022/04/27 05:40:12;;;;;;;5.43;4.28;;;8.20;99.90;;;;;;5031168;28;20065;-82
2022/04/27 05:42:39;;;;;;;7.82;4.28;;;8.20;99.90;;;;;;5029863;28;20123;-85
2022/04/27 05:45:05;;;;;;;9.07;4.93;;;8.40;99.90;;;;;;5031799;28;20061;-81
2022/04/27 05:47:31;;;;;;;7.97;4.50;;;8.30;99.90;;;;;;5031289;28;20047;-82
2022/04/27 05:49:57;;;;;;;7.25;4.80;;;8.30;99.90;;;;;;5028892;28;20117;-84
2022/04/27 05:52:22;;;;;;;5.32;4.10;;;8.30;99.90;;;;;;5026864;28;20545;-83
2022/04/27 05:54:48;;;;;;;7.00;3.95;;;8.40;99.90;;;;;;5015253;28;20526;-81
2022/04/27 05:57:14;;;;;;;7.85;4.68;;;8.40;99.90;;;;;;5023513;28;20487;-81
2022/04/27 05:59:40;;;;;;;6.85;4.10;;;8.40;99.90;;;;;;5030182;28;20037;-82
2022/04/27 06:02:07;;;;;;;5.78;4.05;;;8.50;99.90;;;;;;5028588;28;20037;-81
2022/04/27 06:04:32;;;;;;;7.68;4.00;;;8.50;99.90;;;;;;5030449;28;20048;-82
2022/04/27 06:06:58;;;;;;;6.55;3.92;;;8.50;99.90;;;;;;5027825;28;20495;-82
2022/04/27 06:09:23;;;;;;;5.10;3.45;;;8.50;99.90;;;;;;5032551;28;20048;-82
2022/04/27 06:11:49;;;;;;;8.38;4.20;;;8.50;99.90;;;;;;5030173;28;20037;-82
2022/04/27 06:14:14;;;;;;;5.53;3.90;;;8.60;99.90;;;;;;5033094;28;20033;-83
2022/04/27 06:16:40;;;;;;;5.95;4.00;;;8.60;99.90;;;;;;5031696;28;20041;-84
2022/04/27 06:19:05;;;;;;;7.32;3.90;;;8.60;99.90;;;;;;5034456;28;20033;-84
2022/04/27 06:21:32;;;;;;;6.32;4.18;;;8.60;99.90;;;;;;5031471;28;20045;-84
2022/04/27 06:24:00;;;;;;;6.68;3.90;;;8.70;99.90;;;;;;5027282;28;20068;-83
2022/04/27 06:26:26;;;;;;;7.53;4.40;;;8.70;99.90;;;;;;5032353;28;20490;-83
2022/04/27 06:28:52;;;;;;;8.20;3.97;;;8.70;99.90;;;;;;5027224;28;20060;-83
2022/04/27 06:31:18;;;;;;;7.43;4.00;;;8.80;99.90;;;;;;5036091;28;20041;-82
2022/04/27 06:33:44;;;;;;;4.93;4.13;;;8.80;99.90;;;;;;5019369;28;20449;-84
2022/04/27 06:36:10;;;;;;;6.88;4.38;;;8.80;99.90;;;;;;5029832;28;20392;-82
2022/04/27 06:38:36;;;;;;;8.10;3.95;;;8.90;99.90;;;;;;5025024;28;20103;-83
2022/04/27 06:41:02;;;;;;;5.97;3.72;;;8.90;99.90;;;;;;5033408;28;20091;-83
2022/04/27 06:43:27;;;;;;;5.93;4.18;;;8.90;99.90;;;;;;5033084;28;20044;-82
2022/04/27 06:45:53;;;;;;;7.22;4.00;;;9.00;99.90;;;;;;5032028;28;20033;-83
2022/04/27 06:48:18;;;;;;;10.80;3.70;;;9.10;99.90;;;;;;5028567;28;20060;-83
2022/04/27 06:50:45;;;;;;;6.13;3.78;;;9.10;99.90;;;;;;5029175;28;20085;-82
2022/04/27 06:53:10;;;;;;;7.20;4.05;;;9.20;99.90;;;;;;5030250;28;20063;-82
2022/04/27 06:55:36;;;;;;;6.78;3.90;;;9.20;99.90;;;;;;5029762;28;20537;-82
2022/04/27 06:58:02;;;;;;;8.43;3.90;;;9.20;99.90;;;;;;5031908;28;20037;-83
2022/04/27 07:00:28;;;;;;;6.03;3.47;;;9.20;99.90;;;;;;5031876;28;20032;-82
2022/04/27 07:02:53;;;;;;;13.63;4.15;;;9.20;99.90;;;;;;5032462;28;20033;-83
2022/04/27 07:05:20;;;;;;;6.35;3.90;;;9.30;99.90;;;;;;5029615;28;20128;-84
2022/04/27 07:07:47;;;;;;;5.60;3.30;;;9.40;99.90;;;;;;5031383;28;20060;-83
2022/04/27 07:10:14;;;;;;;5.50;3.50;;;9.50;99.90;;;;;;5029338;28;20052;-81
2022/04/27 07:12:40;;;;;;;6.07;3.28;;;9.60;99.90;;;;;;5013401;28;20049;-83
2022/04/27 07:15:06;;;;;;;6.10;3.20;;;9.70;99.90;;;;;;5031122;28;20095;-82
2022/04/27 07:17:32;;;;;;;6.45;3.40;;;9.80;99.90;;;;;;5028335;28;20120;-83
2022/04/27 07:19:58;;;;;;;4.88;2.80;;;9.90;99.90;;;;;;5030649;28;20061;-82
2022/04/27 07:22:23;;;;;;;4.50;2.83;;;10.00;99.90;;;;;;5028794;28;20524;-83
2022/04/27 07:24:51;;;;;;;5.53;2.75;;;10.00;99.90;;;;;;5031616;28;20553;-83
2022/04/27 07:27:17;;;;;;;5.57;2.58;;;10.00;99.90;;;;;;5032067;28;20048;-83
2022/04/27 07:29:43;;;;;;;5.38;2.63;;;10.00;99.90;;;;;;5031691;28;20034;-82
2022/04/27 07:32:09;;;;;;;6.18;2.30;;;10.10;99.90;;;;;;5016367;28;20387;-83
2022/04/27 07:34:34;;;;;;;8.63;2.78;;;10.10;99.90;;;;;;5032297;28;20049;-84
2022/04/27 07:37:02;;;;;;;6.30;3.30;;;10.00;99.90;;;;;;5032569;28;20076;-83
2022/04/27 07:39:27;;;;;;;4.57;2.70;;;10.00;99.90;;;;;;5033123;28;20041;-82
2022/04/27 07:41:53;;;;;;;4.47;2.88;;;10.00;99.90;;;;;;5032199;28;20033;-82
2022/04/27 07:44:19;;;;;;;4.53;2.90;;;10.00;99.90;;;;;;5029114;28;20260;-81
2022/04/27 07:46:47;;;;;;;4.63;2.97;;;10.00;99.90;;;;;;5030590;28;20045;-81
2022/04/27 07:49:19;;;;;;;5.43;3.13;;;10.10;99.90;;;;;;5029939;28;20055;-81
2022/04/27 07:51:48;;;;;;;7.53;2.70;;;10.10;99.90;;;;;;5029974;28;20045;-81
2022/04/27 07:54:13;;;;;;;6.75;2.92;;;10.10;99.90;;;;;;5033430;28;20037;-82
2022/04/27 07:56:39;;;;;;;5.35;2.40;;;10.00;99.90;;;;;;5032253;28;20056;-81
2022/04/27 07:59:05;;;;;;;5.90;2.58;;;10.00;99.90;;;;;;5028660;28;20090;-81
2022/04/27 08:01:31;;;;;;;5.45;2.95;;;10.10;99.90;;;;;;5030966;28;20128;-81
2022/04/27 08:03:57;;;;;;;5.68;3.00;;;10.10;99.90;;;;;;5026123;28;20054;-81
2022/04/27 08:06:22;;;;;;;6.40;2.63;;;10.10;99.90;;;;;;5024146;28;20049;-81
2022/04/27 08:08:48;;;;;;;7.88;2.85;;;10.10;99.90;;;;;;5029154;28;20033;-82
2022/04/27 08:11:15;;;;;;;5.38;2.42;;;10.00;99.90;;;;;;5028727;28;20399;-83
2022/04/27 08:13:44;;;;;;;7.57;2.40;;;10.00;99.90;;;;;;5024637;28;20537;-83
2022/04/27 08:16:11;;;;;;;4.28;1.95;;;10.00;99.90;;;;;;5032307;28;20077;-81
2022/04/27 08:18:38;;;;;;;5.63;2.03;;;10.00;99.90;;;;;;5031649;28;20041;-81
2022/04/27 08:21:16;;;;;;;9.75;2.45;;;10.10;99.90;;;;;;5032158;28;20084;-82
2022/04/27 08:23:48;;;;;;;7.18;2.00;;;10.10;99.90;;;;;;5029601;28;20045;-81
2022/04/27 08:26:15;;;;;;;6.32;2.03;;;10.10;99.90;;;;;;5025652;28;20049;-81
2022/04/27 08:28:41;;;;;;;4.63;2.00;;;10.20;99.90;;;;;;5029695;28;20421;-82
2022/04/27 08:31:08;;;;;;;7.72;2.20;;;10.20;99.90;;;;;;5029659;28;20025;-81
2022/04/27 08:33:35;;;;;;;7.00;2.20;;;10.20;99.90;;;;;;5012004;28;20156;-81
2022/04/27 08:36:00;;;;;;;5.65;2.03;;;10.30;99.90;;;;;;5018891;28;20073;-81
2022/04/27 08:38:27;;;;;;;6.88;2.17;;;10.30;99.90;;;;;;5030275;28;20044;-81
2022/04/27 08:40:53;;;;;;;6.90;2.92;;;10.30;99.90;;;;;;5031451;28;20054;-80
2022/04/27 08:43:21;;;;;;;6.32;2.30;;;10.30;99.90;;;;;;5032713;28;20087;-81
2022/04/27 08:45:46;;;;;;;5.63;2.20;;;10.20;99.90;;;;;;5020257;28;20041;-80
2022/04/27 08:48:14;;;;;;;6.88;2.35;;;10.30;99.90;;;;;;5029717;28;20124;-80
2022/04/27 08:50:40;;;;;;;8.55;2.22;;;10.30;99.90;;;;;;5030862;28;20054;-82
2022/04/27 08:53:06;;;;;;;7.32;2.50;;;10.20;99.90;;;;;;5032368;28;20049;-81
2022/04/27 08:55:34;;;;;;;10.45;2.83;;;10.20;99.90;;;;;;5035478;28;20041;-81
2022/04/27 08:58:12;;;;;;;6.25;2.60;;;10.30;99.90;;;;;;5035352;28;20052;-81
2022/04/27 09:00:38;;;;;;;5.90;3.15;;;10.20;99.90;;;;;;5018072;28;20037;-81
2022/04/27 09:03:27;;;;;;;7.13;2.95;;;10.20;99.90;;;;;;5035192;28;20399;-81
2022/04/27 09:06:03;;;;;;;5.82;3.03;;;10.10;99.90;;;;;;5035062;28;20126;-81
2022/04/27 09:08:46;;;;;;;7.32;2.83;;;10.10;99.90;;;;;;5034801;28;20059;-77
2022/04/27 09:11:25;;;;;;;6.35;3.03;;;10.20;99.90;;;;;;5034513;28;20033;-78
2022/04/27 09:14:08;;;;;;;8.18;3.10;;;10.30;99.90;;;;;;5032654;28;20175;-77
2022/04/27 09:22:24;;;;;;;6.60;2.70;;;10.30;99.90;;;;;;5033211;28;20041;-77
2022/04/27 09:24:55;;;;;;;6.65;2.70;;;10.30;99.90;;;;;;5032545;28;20045;-77
2022/04/27 09:27:22;;;;;;;6.30;2.80;;;10.20;99.90;;;;;;5032801;28;20088;-77
2022/04/27 09:30:03;;;;;;;6.70;2.75;;;10.20;99.90;;;;;;5032854;28;20486;-77
2022/04/27 09:32:30;;;;;;;10.18;3.00;;;10.20;99.90;;;;;;5032518;28;20124;-78
2022/04/27 09:34:57;;;;;;;9.65;3.10;;;10.20;99.90;;;;;;5032708;28;20045;-81
2022/04/27 09:37:24;;;;;;;8.75;2.80;;;10.20;99.90;;;;;;5034230;28;20041;-81
2022/04/27 09:40:13;;;;;;;10.20;2.90;;;10.10;99.90;;;;;;5033793;28;20099;-82
2022/04/27 09:42:46;;;;;;;7.60;2.40;;;10.10;99.90;;;;;;5033285;28;20048;-83
2022/04/27 09:45:15;;;;;;;8.23;2.38;;;10.10;99.90;;;;;;5014209;28;20087;-82
2022/04/27 09:47:49;;;;;;;8.80;2.65;;;10.10;99.90;;;;;;5051716;28;20046;-82
2022/04/27 09:50:16;;;;;;;7.35;2.45;;;10.10;99.90;;;;;;5033683;28;20558;-82
2022/04/27 09:52:41;;;;;;;13.10;2.63;;;10.10;99.90;;;;;;5041079;28;20055;-81
2022/04/27 09:55:08;;;;;;;7.82;2.70;;;10.20;99.90;;;;;;5034769;28;20512;-81
2022/04/27 09:57:42;;;;;;;15.30;3.30;;;10.10;99.90;;;;;;5034004;28;20048;-81
2022/04/27 10:00:09;;;;;;;10.52;2.83;;;10.10;99.90;;;;;;5033891;28;20040;-81
2022/04/27 10:02:40;;;;;;;12.93;3.25;;;10.10;99.90;;;;;;5033290;28;20034;-81
2022/04/27 10:05:07;;;;;;;9.95;2.38;;;10.10;99.90;;;;;;5032221;28;20529;-81
2022/04/27 10:07:34;;;;;;;13.25;3.05;;;10.10;99.90;;;;;;5032442;28;20041;-82
2022/04/27 10:10:00;;;;;;;12.55;2.80;;;10.10;99.90;;;;;;5016427;28;20041;-81
2022/04/27 10:12:25;;;;;;;11.93;2.70;;;10.20;99.90;;;;;;5032343;28;20037;-81
2022/04/27 10:14:51;;;;;;;13.98;3.20;;;10.10;99.90;;;;;;5033244;28;20132;-81
2022/04/27 10:17:17;;;;;;;13.77;2.53;;;10.20;99.90;;;;;;5016270;28;20474;-81
2022/04/27 10:19:47;;;;;;;13.48;3.00;;;10.20;99.90;;;;;;5034013;28;20099;-81
2022/04/27 10:22:33;;;;;;;14.07;2.95;;;10.10;99.90;;;;;;5034386;28;20030;-81
2022/04/27 10:25:11;;;;;;;11.00;2.67;;;10.10;99.90;;;;;;5051587;28;20041;-81
2022/04/27 10:27:39;;;;;;;8.65;2.55;;;10.20;99.90;;;;;;5033135;28;20083;-82
2022/04/27 10:30:10;;;;;;;11.57;3.35;;;10.20;99.90;;;;;;5016726;28;20451;-81
2022/04/27 10:32:51;;;;;;;10.85;2.95;;;10.20;99.90;;;;;;5033931;28;20148;-81
2022/04/27 10:35:19;;;;;;;16.05;3.17;;;10.20;99.90;;;;;;5032591;28;20129;-82
2022/04/27 10:37:57;;;;;;;13.13;3.15;;;10.20;99.90;;;;;;5033912;28;20041;-81
2022/04/27 10:40:40;;;;;;;14.43;2.80;;;10.30;99.90;;;;;;5033662;28;20108;-81
2022/04/27 10:43:06;;;;;;;9.25;2.42;;;10.40;99.90;;;;;;5034220;28;20492;-82
2022/04/27 10:45:33;;;;;;;14.13;3.15;;;10.30;99.90;;;;;;5031434;28;20056;-81
2022/04/27 10:48:03;;;;;;;7.80;2.65;;;10.40;99.90;;;;;;5033473;28;20095;-81
2022/04/27 10:50:31;;;;;;;16.23;3.25;;;10.40;99.90;;;;;;5032823;28;20076;-81
2022/04/27 10:53:00;;;;;;;7.65;2.30;;;10.40;99.90;;;;;;5042368;28;20045;-82
2022/04/27 10:55:35;;;;;;;9.77;2.47;;;10.40;99.90;;;;;;5051994;28;20049;-82
2022/04/27 10:58:22;;;;;;;8.23;2.25;;;10.40;99.90;;;;;;5054501;28;20067;-81
2022/04/27 11:01:02;;;;;;;10.07;2.70;;;10.50;99.90;;;;;;5030468;28;20091;-81
2022/04/27 11:03:29;;;;;;;12.38;2.75;;;10.50;99.90;;;;;;5032133;28;20071;-82
2022/04/27 11:06:03;;;;;;;8.43;2.72;;;10.50;99.90;;;;;;5033235;28;20510;-82
2022/04/27 11:09:08;;;;;;;9.05;2.88;;;10.40;99.90;;;;;;5034465;28;20045;-81
2022/04/27 11:11:40;;;;;;;;;;;10.40;99.90;;;;;;5039056;28;20041;-81
2022/04/27 11:14:08;;;;;;;13.18;2.75;;;10.40;99.90;;;;;;5034269;28;19921;-81
2022/04/27 11:16:44;;;;;;;10.18;2.70;;;10.50;99.90;;;;;;5033194;28;20102;-81
2022/04/27 11:19:09;;;;;;;14.18;2.90;;;10.60;99.90;;;;;;5028230;28;20034;-81
2022/04/27 11:21:35;;;;;;;8.82;2.70;;;10.60;99.90;;;;;;5023582;28;20100;-82
2022/04/27 11:24:05;;;;;;;12.57;2.60;;;10.60;99.90;;;;;;5012978;28;20091;-82
2022/04/27 11:26:31;;;;;;;13.90;2.85;;;10.70;99.90;;;;;;5014123;28;20042;-81
2022/04/27 11:28:57;;;;;;;10.55;3.03;;;10.80;99.90;;;;;;5013928;28;20037;-82
2022/04/27 11:31:23;;;;;;;10.07;2.70;;;10.90;99.90;;;;;;5013047;28;20063;-82
2022/04/27 11:33:49;;;;;;;11.18;2.92;;;10.90;99.90;;;;;;4997108;28;20614;-82
2022/04/27 11:36:22;;;;;;;11.20;2.95;;;10.90;99.90;;;;;;5012870;28;20040;-81
2022/04/27 11:38:49;;;;;;;11.23;2.85;;;11.00;99.90;;;;;;5013352;28;20567;-81
2022/04/27 11:41:20;;;;;;;9.77;2.83;;;11.00;99.90;;;;;;4996962;28;20152;-82
2022/04/27 11:43:46;;;;;;;9.88;2.88;;;11.00;99.90;;;;;;5021315;28;20089;-82
2022/04/27 11:46:12;;;;;;;9.35;2.78;;;11.10;99.90;;;;;;5031461;28;20041;-81
2022/04/27 11:48:37;;;;;;;11.10;2.97;;;11.10;99.90;;;;;;5030871;28;20037;-82
2022/04/27 11:51:05;;;;;;;9.52;2.60;;;11.10;99.90;;;;;;5028000;28;20068;-83
2022/04/27 11:53:40;;;;;;;9.43;2.40;;;11.10;99.90;;;;;;5027869;28;20514;-81
2022/04/27 11:56:05;;;;;;;8.93;2.70;;;11.10;99.90;;;;;;5030855;28;20120;-82
2022/04/27 11:58:31;;;;;;;11.98;2.65;;;11.20;99.90;;;;;;5031395;28;20075;-81
2022/04/27 12:00:59;;;;;;;7.47;2.70;;;11.40;99.90;;;;;;5030211;28;20037;-82
2022/04/27 12:03:25;;;;;;;10.85;2.70;;;11.40;99.90;;;;;;5029705;28;20530;-82
2022/04/27 12:05:53;;;;;;;9.60;2.38;;;11.60;99.90;;;;;;5030772;28;20033;-81
2022/04/27 12:08:27;;;;;;;11.85;2.55;;;11.90;99.90;;;;;;5030319;28;20068;-82
2022/04/27 12:10:53;;;;;;;7.90;2.50;;;12.10;99.90;;;;;;5030320;28;20090;-81
2022/04/27 12:13:21;;;;;;;8.68;2.95;;;12.30;99.90;;;;;;5013969;28;20120;-80
2022/04/27 12:15:52;;;;;;;9.65;3.03;;;12.50;99.90;;;;;;5031683;28;20037;-82
2022/04/27 12:18:19;;;;;;;8.48;2.25;;;12.40;99.90;;;;;;5032900;28;20195;-81
2022/04/27 12:20:48;;;;;;;11.32;2.50;;;12.50;99.90;;;;;;5031415;28;20165;-83
2022/04/27 12:23:38;;;;;;;7.30;2.33;;;12.70;99.90;;;;;;5029186;28;20034;-81
2022/04/27 12:26:04;;;;;;;7.40;2.30;;;12.90;99.90;;;;;;5005997;28;20147;-80
2022/04/27 12:28:32;;;;;;;6.78;2.40;;;13.00;99.90;;;;;;5029332;28;20088;-81
2022/04/27 12:31:06;;;;;;;8.18;2.33;;;13.10;99.90;;;;;;5045564;28;20036;-81
2022/04/27 12:33:43;;;;;;;6.72;2.40;;;13.20;99.90;;;;;;5028984;28;20934;-80
2022/04/27 12:39:01;;;;;;;9.05;2.53;;;13.40;99.90;;;;;;5028171;28;20136;-81
2022/04/27 12:41:41;;;;;;;12.55;2.63;;;13.10;99.90;;;;;;5029097;28;20103;-81
2022/04/27 12:44:09;;;;;;;7.75;2.33;;;13.10;99.90;;;;;;5030825;28;20052;-81
2022/04/27 12:46:37;;;;;;;8.52;2.30;;;12.90;99.90;;;;;;5027579;28;20052;-81
2022/04/27 12:49:06;;;;;;;7.47;2.30;;;12.70;99.90;;;;;;5029324;28;20103;-81
2022/04/27 12:51:35;;;;;;;10.65;2.47;;;12.90;99.90;;;;;;5030325;28;20056;-81
2022/04/27 12:54:04;;;;;;;9.48;2.75;;;13.10;99.90;;;;;;5031381;28;20706;-80
2022/04/27 12:56:39;;;;;;;7.97;2.35;;;13.10;99.90;;;;;;5027074;28;20039;-80
2022/04/27 12:59:10;;;;;;;7.30;2.40;;;13.10;99.90;;;;;;5030577;28;20105;-80
2022/04/27 13:01:36;;;;;;;11.52;2.75;;;13.20;99.90;;;;;;5028096;28;20598;-81
2022/04/27 13:04:02;;;;;;;10.43;2.72;;;13.30;99.90;;;;;;5028774;28;20038;-81
2022/04/27 13:06:31;;;;;;;10.38;2.30;;;13.30;99.90;;;;;;5030486;28;20029;-81
2022/04/27 13:11:55;;;;;;;8.52;2.63;;;13.00;99.90;;;;;;5032431;28;20041;-80
2022/04/27 13:11:56;;;;;;;7.82;2.90;;;12.70;99.90;;;;;;5033690;28;20384;-80
2022/04/27 13:14:23;;;;;;;7.65;2.97;;;12.60;99.90;;;;;;5030266;28;20041;-80
2022/04/27 13:16:48;;;;;;;10.25;2.60;;;12.50;99.90;;;;;;5030770;28;20046;-80
2022/04/27 13:19:14;;;;;;;10.15;2.95;;;12.40;99.90;;;;;;5031288;28;20037;-80